EJU98RN LSGG-LIPZ
Flight info
| Callsign | EJU98RN |
|---|---|
| Flight time | N/A |
| Altitude | 35000 |
| Route | SOSAL N871 KORED DCT BERSU DCT RESIA DCT ADOSA/N0341F190 L612 ALBET |
| Aircraft | A320/M-SDE2E3FGHIJ1RWXYZ/LB1 |
Departure
| Time | 2026-05-04 22:59 |
|---|---|
| Airport | Geneva International Airport (LSGG) |
Arrival
| Time | N/A |
|---|---|
| Airport | Venice Marco Polo Airport (LIPZ) |
| Time | Latitude | Longitude | Altitude | Speed | Heading |
|---|---|---|---|---|---|
| 2026-05-04 22:24 | 46.23156 | 6.10741 | 1393 ft | 0 kts | 135° |
| 2026-05-04 22:48 | 46.23164 | 6.10728 | 1404 ft | 2 kts | 135° |
| 2026-05-04 22:48 | 46.23177 | 6.10711 | 1404 ft | 3 kts | 121° |
| 2026-05-04 22:49 | 46.23183 | 6.10687 | 1404 ft | 3 kts | 84° |
| 2026-05-04 22:49 | 46.23179 | 6.10666 | 1402 ft | 0 kts | 51° |
| 2026-05-04 22:52 | 46.23193 | 6.10692 | 1404 ft | 9 kts | 51° |
| 2026-05-04 22:52 | 46.23220 | 6.10739 | 1400 ft | 10 kts | 50° |
| 2026-05-04 22:52 | 46.23287 | 6.10791 | 1400 ft | 13 kts | 15° |
| 2026-05-04 22:53 | 46.23367 | 6.10866 | 1398 ft | 16 kts | 47° |
| 2026-05-04 22:53 | 46.23448 | 6.10991 | 1398 ft | 19 kts | 42° |
| 2026-05-04 22:53 | 46.23530 | 6.11103 | 1397 ft | 17 kts | 44° |
| 2026-05-04 22:53 | 46.23623 | 6.11137 | 1398 ft | 16 kts | 317° |
| 2026-05-04 22:54 | 46.23714 | 6.11071 | 1387 ft | 15 kts | 13° |
| 2026-05-04 22:54 | 46.23791 | 6.11211 | 1377 ft | 22 kts | 44° |
| 2026-05-04 22:54 | 46.23910 | 6.11373 | 1374 ft | 26 kts | 45° |
| 2026-05-04 22:54 | 46.23976 | 6.11492 | 1372 ft | 15 kts | 36° |
| 2026-05-04 22:55 | 46.24066 | 6.11611 | 1369 ft | 20 kts | 46° |
| 2026-05-04 22:55 | 46.24178 | 6.11774 | 1364 ft | 25 kts | 45° |
| 2026-05-04 22:55 | 46.24312 | 6.11967 | 1363 ft | 28 kts | 43° |
| 2026-05-04 22:55 | 46.24444 | 6.12165 | 1371 ft | 27 kts | 46° |
| 2026-05-04 22:56 | 46.24579 | 6.12357 | 1371 ft | 23 kts | 25° |
| 2026-05-04 22:56 | 46.24689 | 6.12523 | 1364 ft | 26 kts | 44° |
| 2026-05-04 22:56 | 46.24837 | 6.12686 | 1363 ft | 26 kts | 12° |
| 2026-05-04 22:56 | 46.24963 | 6.12728 | 1369 ft | 14 kts | 9° |
| 2026-05-04 22:57 | 46.25027 | 6.12673 | 1372 ft | 10 kts | 284° |
| 2026-05-04 22:57 | 46.24996 | 6.12614 | 1372 ft | 7 kts | 214° |
| 2026-05-04 22:57 | 46.24948 | 6.12568 | 1371 ft | 9 kts | 215° |
| 2026-05-04 22:57 | 46.24921 | 6.12533 | 1372 ft | 0 kts | 228° |
| 2026-05-04 22:58 | 46.24891 | 6.12485 | 1372 ft | 33 kts | 228° |
| 2026-05-04 22:58 | 46.24538 | 6.11968 | 1372 ft | 107 kts | 225° |
| 2026-05-04 22:58 | 46.23876 | 6.11002 | 1409 ft | 159 kts | 225° |
| 2026-05-04 22:59 | 46.23076 | 6.09872 | 1999 ft | 163 kts | 224° |
| 2026-05-04 22:59 | 46.22222 | 6.08762 | 2646 ft | 166 kts | 220° |
| 2026-05-04 22:59 | 46.21343 | 6.07697 | 3302 ft | 164 kts | 223° |
| 2026-05-04 22:59 | 46.20583 | 6.06495 | 3985 ft | 161 kts | 230° |
| 2026-05-04 23:00 | 46.19855 | 6.05289 | 4652 ft | 159 kts | 225° |
| 2026-05-04 23:00 | 46.19071 | 6.04082 | 5080 ft | 172 kts | 224° |
| 2026-05-04 23:00 | 46.18209 | 6.02786 | 5436 ft | 187 kts | 224° |
| 2026-05-04 23:00 | 46.17260 | 6.01378 | 5782 ft | 205 kts | 223° |
| 2026-05-04 23:01 | 46.16215 | 5.99838 | 6231 ft | 224 kts | 223° |
| 2026-05-04 23:01 | 46.15090 | 5.98157 | 6739 ft | 241 kts | 224° |
| 2026-05-04 23:01 | 46.13934 | 5.96282 | 7271 ft | 260 kts | 234° |
| 2026-05-04 23:01 | 46.13224 | 5.93838 | 8043 ft | 271 kts | 256° |
| 2026-05-04 23:02 | 46.13193 | 5.91093 | 8933 ft | 280 kts | 277° |
| 2026-05-04 23:02 | 46.13898 | 5.88447 | 9788 ft | 289 kts | 300° |
| 2026-05-04 23:02 | 46.15310 | 5.86336 | 10494 ft | 299 kts | 324° |
| 2026-05-04 23:02 | 46.17234 | 5.85226 | 11235 ft | 308 kts | 350° |
| 2026-05-04 23:03 | 46.19378 | 5.85381 | 12005 ft | 314 kts | 16° |
| 2026-05-04 23:03 | 46.21299 | 5.86867 | 12768 ft | 317 kts | 43° |
| 2026-05-04 23:03 | 46.22595 | 5.89407 | 13517 ft | 318 kts | 68° |
| 2026-05-04 23:03 | 46.23427 | 5.92437 | 13934 ft | 333 kts | 71° |
| 2026-05-04 23:04 | 46.24257 | 5.95647 | 14259 ft | 349 kts | 71° |
| 2026-05-04 23:04 | 46.25113 | 5.99003 | 14653 ft | 362 kts | 72° |
| 2026-05-04 23:04 | 46.26010 | 6.02434 | 15245 ft | 367 kts | 68° |
| 2026-05-04 23:04 | 46.27248 | 6.05682 | 15902 ft | 372 kts | 56° |
| 2026-05-04 23:05 | 46.28924 | 6.08557 | 16558 ft | 377 kts | 44° |
| 2026-05-04 23:05 | 46.30862 | 6.11143 | 17202 ft | 381 kts | 43° |
| 2026-05-04 23:05 | 46.32818 | 6.13758 | 17851 ft | 384 kts | 44° |
| 2026-05-04 23:05 | 46.34781 | 6.16402 | 18460 ft | 388 kts | 44° |
| 2026-05-04 23:06 | 46.36763 | 6.19074 | 18991 ft | 392 kts | 43° |
| 2026-05-04 23:06 | 46.38785 | 6.21758 | 19512 ft | 396 kts | 43° |
| 2026-05-04 23:06 | 46.40836 | 6.24445 | 20020 ft | 400 kts | 42° |
| 2026-05-04 23:06 | 46.42916 | 6.27162 | 20528 ft | 404 kts | 43° |
| 2026-05-04 23:07 | 46.45011 | 6.29927 | 21024 ft | 409 kts | 43° |
| 2026-05-04 23:07 | 46.47114 | 6.32732 | 21523 ft | 413 kts | 43° |
| 2026-05-04 23:07 | 46.49230 | 6.35576 | 22007 ft | 417 kts | 43° |
| 2026-05-04 23:07 | 46.51369 | 6.38454 | 22479 ft | 421 kts | 43° |
| 2026-05-04 23:08 | 46.53365 | 6.41576 | 22960 ft | 425 kts | 54° |
| 2026-05-04 23:08 | 46.54930 | 6.45223 | 23427 ft | 427 kts | 65° |
| 2026-05-04 23:08 | 46.56002 | 6.49251 | 23821 ft | 428 kts | 77° |
| 2026-05-04 23:08 | 46.56546 | 6.53495 | 24210 ft | 428 kts | 88° |
| 2026-05-04 23:09 | 46.56575 | 6.57802 | 24616 ft | 427 kts | 95° |
| 2026-05-04 23:09 | 46.56475 | 6.62139 | 25016 ft | 430 kts | 95° |
| 2026-05-04 23:09 | 46.56368 | 6.66487 | 25418 ft | 433 kts | 95° |
| 2026-05-04 23:09 | 46.56258 | 6.70867 | 25818 ft | 435 kts | 95° |
| 2026-05-04 23:10 | 46.56148 | 6.75276 | 26213 ft | 438 kts | 95° |
| 2026-05-04 23:10 | 46.56050 | 6.79718 | 26600 ft | 441 kts | 92° |
| 2026-05-04 23:10 | 46.56309 | 6.84118 | 26986 ft | 446 kts | 82° |
| 2026-05-04 23:10 | 46.57105 | 6.88500 | 27384 ft | 451 kts | 71° |
| 2026-05-04 23:11 | 46.58429 | 6.92643 | 27759 ft | 455 kts | 60° |
| 2026-05-04 23:11 | 46.60243 | 6.96415 | 28131 ft | 458 kts | 51° |
| 2026-05-04 23:11 | 46.62262 | 7.00022 | 28486 ft | 460 kts | 51° |
| 2026-05-04 23:11 | 46.64280 | 7.03648 | 28843 ft | 463 kts | 51° |
| 2026-05-04 23:12 | 46.66307 | 7.07310 | 29203 ft | 465 kts | 51° |
| 2026-05-04 23:12 | 46.68342 | 7.10993 | 29560 ft | 468 kts | 51° |
| 2026-05-04 23:12 | 46.70383 | 7.14692 | 29913 ft | 470 kts | 51° |
| 2026-05-04 23:12 | 46.72441 | 7.18424 | 30233 ft | 473 kts | 51° |
| 2026-05-04 23:13 | 46.74500 | 7.22163 | 30493 ft | 475 kts | 51° |
| 2026-05-04 23:13 | 46.76572 | 7.25933 | 30761 ft | 478 kts | 51° |
| 2026-05-04 23:13 | 46.78654 | 7.29727 | 31033 ft | 480 kts | 51° |
| 2026-05-04 23:13 | 46.80741 | 7.33532 | 31301 ft | 482 kts | 51° |
| 2026-05-04 23:14 | 46.82837 | 7.37360 | 31594 ft | 483 kts | 51° |
| 2026-05-04 23:14 | 46.84849 | 7.41037 | 31964 ft | 482 kts | 51° |
| 2026-05-04 23:14 | 46.86813 | 7.44627 | 32335 ft | 481 kts | 51° |
| 2026-05-04 23:14 | 46.88892 | 7.48441 | 32709 ft | 480 kts | 51° |
| 2026-05-04 23:15 | 46.90972 | 7.52262 | 33075 ft | 479 kts | 51° |
| 2026-05-04 23:15 | 46.93043 | 7.56079 | 33454 ft | 479 kts | 51° |
| 2026-05-04 23:15 | 46.95109 | 7.59891 | 33835 ft | 478 kts | 51° |
| 2026-05-04 23:15 | 46.97175 | 7.63710 | 34185 ft | 477 kts | 51° |
| 2026-05-04 23:16 | 46.99229 | 7.67509 | 34513 ft | 476 kts | 51° |
| 2026-05-04 23:16 | 47.01281 | 7.71306 | 34832 ft | 475 kts | 51° |
| 2026-05-04 23:16 | 47.03331 | 7.75102 | 34969 ft | 473 kts | 51° |
| 2026-05-04 23:16 | 47.05345 | 7.78844 | 34998 ft | 463 kts | 51° |
| 2026-05-04 23:17 | 47.09075 | 7.86504 | 34992 ft | 461 kts | 64° |
| 2026-05-04 23:17 | 47.10257 | 7.90854 | 34990 ft | 459 kts | 76° |
| 2026-05-04 23:17 | 47.10851 | 7.95445 | 34996 ft | 456 kts | 88° |
| 2026-05-04 23:18 | 47.10845 | 8.00075 | 35000 ft | 452 kts | 99° |
| 2026-05-04 23:18 | 47.10261 | 8.04574 | 34999 ft | 447 kts | 110° |
| 2026-05-04 23:18 | 47.07891 | 8.12939 | 35000 ft | 444 kts | 118° |
| 2026-05-04 23:19 | 47.05379 | 8.21207 | 34995 ft | 444 kts | 117° |
| 2026-05-04 23:19 | 47.02875 | 8.29486 | 34991 ft | 444 kts | 117° |
| 2026-05-04 23:20 | 47.01459 | 8.33485 | 34989 ft | 439 kts | 128° |
| 2026-05-04 23:20 | 46.99709 | 8.37137 | 34982 ft | 438 kts | 129° |
| 2026-05-04 23:20 | 46.96171 | 8.44419 | 34982 ft | 438 kts | 129° |
| 2026-05-04 23:21 | 46.92627 | 8.51676 | 34995 ft | 438 kts | 129° |
| 2026-05-04 23:21 | 46.89105 | 8.58876 | 34985 ft | 438 kts | 129° |
| 2026-05-04 23:22 | 46.85551 | 8.66123 | 34994 ft | 439 kts | 129° |
| 2026-05-04 23:22 | 46.81990 | 8.73370 | 35003 ft | 439 kts | 129° |
| 2026-05-04 23:23 | 46.78426 | 8.80615 | 35027 ft | 439 kts | 129° |
| 2026-05-04 23:23 | 46.74865 | 8.87840 | 35029 ft | 438 kts | 129° |
| 2026-05-04 23:24 | 46.71295 | 8.95050 | 35029 ft | 439 kts | 129° |
| 2026-05-04 23:24 | 46.67705 | 9.02254 | 35038 ft | 439 kts | 129° |
| 2026-05-04 23:25 | 46.64124 | 9.09443 | 35039 ft | 439 kts | 129° |
| 2026-05-04 23:25 | 46.60543 | 9.16631 | 35039 ft | 439 kts | 129° |
| 2026-05-04 23:26 | 46.56958 | 9.23808 | 35047 ft | 439 kts | 129° |
| 2026-05-04 23:26 | 46.53365 | 9.30978 | 35066 ft | 439 kts | 129° |
| 2026-05-04 23:27 | 46.49769 | 9.38145 | 35069 ft | 439 kts | 129° |
| 2026-05-04 23:27 | 46.46164 | 9.45294 | 35081 ft | 438 kts | 129° |
| 2026-05-04 23:28 | 46.42585 | 9.52367 | 35082 ft | 438 kts | 129° |
| 2026-05-04 23:28 | 46.39000 | 9.59502 | 35088 ft | 439 kts | 128° |
| 2026-05-04 23:29 | 46.35663 | 9.66941 | 35101 ft | 441 kts | 124° |
| 2026-05-04 23:29 | 46.32484 | 9.74532 | 35101 ft | 441 kts | 124° |
| 2026-05-04 23:30 | 46.29287 | 9.82076 | 35099 ft | 440 kts | 125° |
| 2026-05-04 23:30 | 46.26029 | 9.89575 | 35093 ft | 440 kts | 125° |
| 2026-05-04 23:31 | 46.22753 | 9.97044 | 35089 ft | 441 kts | 125° |
| 2026-05-04 23:31 | 46.19468 | 10.04515 | 34908 ft | 438 kts | 125° |
| 2026-05-04 23:32 | 46.17843 | 10.08210 | 34574 ft | 433 kts | 125° |
| 2026-05-04 23:32 | 46.16234 | 10.11877 | 34024 ft | 432 kts | 125° |
| 2026-05-04 23:32 | 46.14651 | 10.15486 | 33482 ft | 430 kts | 125° |
| 2026-05-04 23:32 | 46.13061 | 10.19119 | 32968 ft | 427 kts | 125° |
| 2026-05-04 23:33 | 46.11480 | 10.22722 | 32445 ft | 424 kts | 125° |
| 2026-05-04 23:33 | 46.09905 | 10.26294 | 31945 ft | 421 kts | 125° |
| 2026-05-04 23:33 | 46.08336 | 10.29842 | 31449 ft | 418 kts | 126° |
| 2026-05-04 23:33 | 46.06777 | 10.33359 | 30959 ft | 415 kts | 126° |
| 2026-05-04 23:34 | 46.05224 | 10.36848 | 30473 ft | 413 kts | 126° |
| 2026-05-04 23:34 | 46.03677 | 10.40321 | 29987 ft | 411 kts | 126° |
| 2026-05-04 23:34 | 46.02139 | 10.43772 | 29503 ft | 408 kts | 126° |
| 2026-05-04 23:34 | 46.00621 | 10.47181 | 29042 ft | 403 kts | 126° |
| 2026-05-04 23:35 | 45.99120 | 10.50555 | 28595 ft | 398 kts | 126° |
| 2026-05-04 23:35 | 45.97636 | 10.53892 | 28162 ft | 394 kts | 126° |
| 2026-05-04 23:35 | 45.96165 | 10.57188 | 27723 ft | 391 kts | 126° |
| 2026-05-04 23:35 | 45.94704 | 10.60456 | 27285 ft | 388 kts | 126° |
| 2026-05-04 23:36 | 45.93740 | 10.62608 | 26988 ft | 385 kts | 126° |
| 2026-05-04 23:36 | 45.92291 | 10.65835 | 26543 ft | 382 kts | 126° |
| 2026-05-04 23:36 | 45.90857 | 10.69029 | 26097 ft | 380 kts | 126° |
| 2026-05-04 23:36 | 45.88970 | 10.73235 | 25493 ft | 377 kts | 125° |
| 2026-05-04 23:37 | 45.88013 | 10.75374 | 25181 ft | 377 kts | 125° |
| 2026-05-04 23:37 | 45.86594 | 10.78533 | 24700 ft | 375 kts | 126° |
| 2026-05-04 23:37 | 45.85183 | 10.81668 | 24226 ft | 374 kts | 126° |
| 2026-05-04 23:37 | 45.83773 | 10.84793 | 23748 ft | 372 kts | 126° |
| 2026-05-04 23:38 | 45.82364 | 10.87903 | 23214 ft | 372 kts | 126° |
| 2026-05-04 23:38 | 45.80976 | 10.90963 | 22746 ft | 370 kts | 126° |
| 2026-05-04 23:38 | 45.79578 | 10.94044 | 22276 ft | 367 kts | 125° |
| 2026-05-04 23:38 | 45.78194 | 10.97107 | 21819 ft | 365 kts | 125° |
| 2026-05-04 23:39 | 45.76817 | 11.00153 | 21366 ft | 363 kts | 125° |
| 2026-05-04 23:39 | 45.75440 | 11.03189 | 20919 ft | 362 kts | 125° |
| 2026-05-04 23:39 | 45.74067 | 11.06208 | 20466 ft | 362 kts | 125° |
| 2026-05-04 23:39 | 45.72694 | 11.09219 | 20009 ft | 361 kts | 125° |
| 2026-05-04 23:40 | 45.71321 | 11.12219 | 19577 ft | 360 kts | 125° |
| 2026-05-04 23:40 | 45.69951 | 11.15216 | 19129 ft | 359 kts | 125° |
| 2026-05-04 23:40 | 45.68586 | 11.18205 | 18688 ft | 358 kts | 125° |
| 2026-05-04 23:40 | 45.67229 | 11.21183 | 18232 ft | 357 kts | 124° |
| 2026-05-04 23:41 | 45.65880 | 11.24143 | 17769 ft | 354 kts | 124° |
| 2026-05-04 23:41 | 45.64539 | 11.27086 | 17340 ft | 351 kts | 125° |
| 2026-05-04 23:41 | 45.63208 | 11.29992 | 16919 ft | 348 kts | 125° |
| 2026-05-04 23:41 | 45.61887 | 11.32878 | 16499 ft | 346 kts | 125° |
| 2026-05-04 23:42 | 45.60568 | 11.35748 | 16105 ft | 345 kts | 125° |
| 2026-05-04 23:42 | 45.59254 | 11.38596 | 15693 ft | 343 kts | 125° |
| 2026-05-04 23:42 | 45.57942 | 11.41437 | 15285 ft | 342 kts | 125° |
| 2026-05-04 23:42 | 45.56637 | 11.44260 | 14876 ft | 341 kts | 125° |
| 2026-05-04 23:43 | 45.55357 | 11.47036 | 14488 ft | 340 kts | 125° |
| 2026-05-04 23:43 | 45.54061 | 11.49849 | 14113 ft | 338 kts | 125° |
| 2026-05-04 23:43 | 45.52776 | 11.52638 | 13697 ft | 337 kts | 125° |
| 2026-05-04 23:43 | 45.51500 | 11.55403 | 13360 ft | 332 kts | 125° |
| 2026-05-04 23:44 | 45.50233 | 11.58149 | 12898 ft | 326 kts | 125° |
| 2026-05-04 23:44 | 45.49007 | 11.60801 | 12444 ft | 314 kts | 126° |
| 2026-05-04 23:44 | 45.47827 | 11.63353 | 12061 ft | 302 kts | 126° |
| 2026-05-04 23:44 | 45.46694 | 11.65795 | 11685 ft | 290 kts | 126° |
| 2026-05-04 23:45 | 45.45594 | 11.68157 | 11334 ft | 285 kts | 126° |
| 2026-05-04 23:45 | 45.44495 | 11.70509 | 10970 ft | 286 kts | 126° |
| 2026-05-04 23:45 | 45.43391 | 11.72871 | 10611 ft | 286 kts | 126° |
| 2026-05-04 23:45 | 45.42293 | 11.75228 | 10235 ft | 286 kts | 126° |
| 2026-05-04 23:46 | 45.41192 | 11.77595 | 9835 ft | 286 kts | 126° |
| 2026-05-04 23:46 | 45.40095 | 11.79953 | 9482 ft | 284 kts | 126° |
| 2026-05-04 23:46 | 45.39006 | 11.82290 | 9059 ft | 283 kts | 126° |
| 2026-05-04 23:46 | 45.37920 | 11.84611 | 8694 ft | 281 kts | 126° |
| 2026-05-04 23:47 | 45.36839 | 11.86923 | 8322 ft | 279 kts | 126° |
| 2026-05-04 23:47 | 45.35778 | 11.89187 | 7924 ft | 278 kts | 125° |
| 2026-05-04 23:47 | 45.34699 | 11.91490 | 7490 ft | 276 kts | 125° |
| 2026-05-04 23:47 | 45.33667 | 11.93691 | 7058 ft | 266 kts | 125° |
| 2026-05-04 23:48 | 45.32649 | 11.95857 | 6657 ft | 255 kts | 124° |
| 2026-05-04 23:48 | 45.31695 | 11.97886 | 6272 ft | 245 kts | 124° |
| 2026-05-04 23:48 | 45.30780 | 11.99832 | 6098 ft | 227 kts | 124° |
| 2026-05-04 23:48 | 45.29920 | 12.01660 | 5972 ft | 223 kts | 124° |
| 2026-05-04 23:49 | 45.29093 | 12.03453 | 5897 ft | 223 kts | 119° |
| 2026-05-04 23:49 | 45.28700 | 12.05562 | 5792 ft | 225 kts | 89° |
| 2026-05-04 23:49 | 45.29137 | 12.07699 | 5521 ft | 232 kts | 57° |
| 2026-05-04 23:49 | 45.30274 | 12.09359 | 5086 ft | 239 kts | 43° |
| 2026-05-04 23:50 | 45.31111 | 12.10398 | 4827 ft | 242 kts | 43° |
| 2026-05-04 23:50 | 45.32369 | 12.11972 | 4475 ft | 238 kts | 43° |
| 2026-05-04 23:50 | 45.33595 | 12.13531 | 4161 ft | 237 kts | 43° |
| 2026-05-04 23:50 | 45.34824 | 12.15099 | 3836 ft | 237 kts | 43° |
| 2026-05-04 23:51 | 45.36056 | 12.16671 | 3527 ft | 238 kts | 43° |
| 2026-05-04 23:51 | 45.37280 | 12.18234 | 3207 ft | 234 kts | 43° |
| 2026-05-04 23:51 | 45.38473 | 12.19757 | 2904 ft | 227 kts | 43° |
| 2026-05-04 23:51 | 45.39630 | 12.21235 | 2603 ft | 220 kts | 42° |
| 2026-05-04 23:52 | 45.40746 | 12.22663 | 2324 ft | 210 kts | 42° |
| 2026-05-04 23:52 | 45.41779 | 12.23985 | 2064 ft | 191 kts | 41° |
| 2026-05-04 23:52 | 45.42721 | 12.25191 | 1824 ft | 174 kts | 41° |
| 2026-05-04 23:52 | 45.43568 | 12.26274 | 1592 ft | 158 kts | 41° |
| 2026-05-04 23:53 | 45.44353 | 12.27281 | 1387 ft | 147 kts | 42° |
| 2026-05-04 23:53 | 45.45115 | 12.28256 | 1185 ft | 147 kts | 42° |
| 2026-05-04 23:53 | 45.45870 | 12.29222 | 1002 ft | 145 kts | 42° |
| 2026-05-04 23:53 | 45.46613 | 12.30160 | 812 ft | 140 kts | 42° |
| 2026-05-04 23:54 | 45.47324 | 12.31090 | 634 ft | 137 kts | 43° |
| 2026-05-04 23:54 | 45.48021 | 12.32004 | 394 ft | 135 kts | 42° |
| 2026-05-04 23:54 | 45.48718 | 12.32891 | 198 ft | 134 kts | 42° |
| 2026-05-04 23:54 | 45.49411 | 12.33774 | 44 ft | 133 kts | 41° |
| 2026-05-04 23:55 | 45.50054 | 12.34595 | 15 ft | 104 kts | 41° |